sensor_id;sensor_type;location;lat;lon;timestamp;temperature;humidity
67893;DHT22;54688;52.376;16.744;2022-09-06T00:00:31;11;57.6
67893;DHT22;54688;52.376;16.744;2022-09-06T00:03:34;10.9;57.7
67893;DHT22;54688;52.376;16.744;2022-09-06T00:06:35;10.9;57.9
67893;DHT22;54688;52.376;16.744;2022-09-06T00:09:37;10.8;58
67893;DHT22;54688;52.376;16.744;2022-09-06T00:12:40;10.8;58.2
67893;DHT22;54688;52.376;16.744;2022-09-06T00:15:42;10.7;58.7
67893;DHT22;54688;52.376;16.744;2022-09-06T00:18:44;10.8;58.7
67893;DHT22;54688;52.376;16.744;2022-09-06T00:21:46;10.7;59
67893;DHT22;54688;52.376;16.744;2022-09-06T00:24:48;10.6;59
67893;DHT22;54688;52.376;16.744;2022-09-06T00:27:54;10.6;59
67893;DHT22;54688;52.376;16.744;2022-09-06T00:30:56;10.5;59
67893;DHT22;54688;52.376;16.744;2022-09-06T00:33:58;10.5;59.3
67893;DHT22;54688;52.376;16.744;2022-09-06T00:37:01;10.4;59.2
67893;DHT22;54688;52.376;16.744;2022-09-06T00:40:03;10.4;59.8
67893;DHT22;54688;52.376;16.744;2022-09-06T00:43:06;10.4;60.1
67893;DHT22;54688;52.376;16.744;2022-09-06T00:46:09;10.3;60
67893;DHT22;54688;52.376;16.744;2022-09-06T00:49:16;10.3;60
67893;DHT22;54688;52.376;16.744;2022-09-06T00:52:22;10.2;60.1
67893;DHT22;54688;52.376;16.744;2022-09-06T00:55:26;10.2;60.4
67893;DHT22;54688;52.376;16.744;2022-09-06T00:58:29;10.1;60.5
67893;DHT22;54688;52.376;16.744;2022-09-06T01:01:32;10.1;60.5
67893;DHT22;54688;52.376;16.744;2022-09-06T01:04:34;10;60.7
67893;DHT22;54688;52.376;16.744;2022-09-06T01:07:49;10;61.4
67893;DHT22;54688;52.376;16.744;2022-09-06T01:11:04;9.9;61.5
67893;DHT22;54688;52.376;16.744;2022-09-06T01:14:23;9.9;61.8
67893;DHT22;54688;52.376;16.744;2022-09-06T01:17:40;9.8;62
67893;DHT22;54688;52.376;16.744;2022-09-06T01:20:52;9.8;62.1
67893;DHT22;54688;52.376;16.744;2022-09-06T01:24:17;9.8;62.1
67893;DHT22;54688;52.376;16.744;2022-09-06T01:27:38;9.7;62.2
67893;DHT22;54688;52.376;16.744;2022-09-06T01:31:06;9.7;62.7
67893;DHT22;54688;52.376;16.744;2022-09-06T01:34:20;9.6;62.6
67893;DHT22;54688;52.376;16.744;2022-09-06T01:37:25;9.6;62.8
67893;DHT22;54688;52.376;16.744;2022-09-06T01:40:29;9.6;62.8
67893;DHT22;54688;52.376;16.744;2022-09-06T01:43:31;9.5;62.8
67893;DHT22;54688;52.376;16.744;2022-09-06T01:46:38;9.5;63
67893;DHT22;54688;52.376;16.744;2022-09-06T01:49:51;9.5;63.3
67893;DHT22;54688;52.376;16.744;2022-09-06T01:53:07;9.5;63.3
67893;DHT22;54688;52.376;16.744;2022-09-06T01:56:18;9.4;63.2
67893;DHT22;54688;52.376;16.744;2022-09-06T01:59:33;9.4;63.5
67893;DHT22;54688;52.376;16.744;2022-09-06T02:02:50;9.4;63.6
67893;DHT22;54688;52.376;16.744;2022-09-06T02:05:58;9.3;63.3
67893;DHT22;54688;52.376;16.744;2022-09-06T02:09:08;9.3;63.7
67893;DHT22;54688;52.376;16.744;2022-09-06T02:12:13;9.3;63.3
67893;DHT22;54688;52.376;16.744;2022-09-06T02:15:20;9.2;64
67893;DHT22;54688;52.376;16.744;2022-09-06T02:18:26;9.2;64.1
67893;DHT22;54688;52.376;16.744;2022-09-06T02:21:33;9.1;64.4
67893;DHT22;54688;52.376;16.744;2022-09-06T02:24:38;9.1;64.5
67893;DHT22;54688;52.376;16.744;2022-09-06T02:27:44;9;64.4
67893;DHT22;54688;52.376;16.744;2022-09-06T02:30:47;9;64.5
67893;DHT22;54688;52.376;16.744;2022-09-06T02:33:51;9;64.9
67893;DHT22;54688;52.376;16.744;2022-09-06T02:36:54;8.9;65.1
67893;DHT22;54688;52.376;16.744;2022-09-06T02:39:57;8.9;65
67893;DHT22;54688;52.376;16.744;2022-09-06T02:42:58;8.9;65.3
67893;DHT22;54688;52.376;16.744;2022-09-06T02:46:01;8.8;65.2
67893;DHT22;54688;52.376;16.744;2022-09-06T02:49:03;8.8;65.4
67893;DHT22;54688;52.376;16.744;2022-09-06T02:52:05;8.7;65.3
67893;DHT22;54688;52.376;16.744;2022-09-06T02:55:07;8.7;65.5
67893;DHT22;54688;52.376;16.744;2022-09-06T02:58:10;8.7;65.9
67893;DHT22;54688;52.376;16.744;2022-09-06T03:01:13;8.6;65.3
67893;DHT22;54688;52.376;16.744;2022-09-06T03:04:17;8.6;65.6
67893;DHT22;54688;52.376;16.744;2022-09-06T03:07:19;8.6;65.8
67893;DHT22;54688;52.376;16.744;2022-09-06T03:10:21;8.5;66.3
67893;DHT22;54688;52.376;16.744;2022-09-06T03:13:24;8.5;66.6
67893;DHT22;54688;52.376;16.744;2022-09-06T03:16:27;8.5;66.7
67893;DHT22;54688;52.376;16.744;2022-09-06T03:19:29;8.4;66.4
67893;DHT22;54688;52.376;16.744;2022-09-06T03:22:30;8.4;66.1
67893;DHT22;54688;52.376;16.744;2022-09-06T03:25:32;8.3;66.7
67893;DHT22;54688;52.376;16.744;2022-09-06T03:28:34;8.3;66.5
67893;DHT22;54688;52.376;16.744;2022-09-06T03:31:36;8.3;66.7
67893;DHT22;54688;52.376;16.744;2022-09-06T03:34:38;8.3;67
67893;DHT22;54688;52.376;16.744;2022-09-06T03:37:40;8.2;67.9
67893;DHT22;54688;52.376;16.744;2022-09-06T03:40:43;8.1;68
67893;DHT22;54688;52.376;16.744;2022-09-06T03:43:46;8.2;68.6
67893;DHT22;54688;52.376;16.744;2022-09-06T03:46:48;8.1;68.7
67893;DHT22;54688;52.376;16.744;2022-09-06T03:49:50;8.1;67.9
67893;DHT22;54688;52.376;16.744;2022-09-06T03:52:51;8.1;68.2
67893;DHT22;54688;52.376;16.744;2022-09-06T03:55:54;8;67
67893;DHT22;54688;52.376;16.744;2022-09-06T03:58:58;8;66.9
67893;DHT22;54688;52.376;16.744;2022-09-06T04:02:00;7.9;67.8
67893;DHT22;54688;52.376;16.744;2022-09-06T04:05:05;7.9;67.9
67893;DHT22;54688;52.376;16.744;2022-09-06T04:08:07;7.8;68.9
67893;DHT22;54688;52.376;16.744;2022-09-06T04:11:09;7.8;69.4
67893;DHT22;54688;52.376;16.744;2022-09-06T04:14:11;7.8;69.8
67893;DHT22;54688;52.376;16.744;2022-09-06T04:17:13;7.8;69.6
67893;DHT22;54688;52.376;16.744;2022-09-06T04:20:15;7.8;70.5
67893;DHT22;54688;52.376;16.744;2022-09-06T04:23:17;7.7;70.1
67893;DHT22;54688;52.376;16.744;2022-09-06T04:26:21;7.7;70.2
67893;DHT22;54688;52.376;16.744;2022-09-06T04:29:23;7.7;70.3
67893;DHT22;54688;52.376;16.744;2022-09-06T04:32:24;7.7;71
67893;DHT22;54688;52.376;16.744;2022-09-06T04:35:26;7.7;71.4
67893;DHT22;54688;52.376;16.744;2022-09-06T04:38:29;7.8;71.8
67893;DHT22;54688;52.376;16.744;2022-09-06T04:41:34;7.9;71.1
67893;DHT22;54688;52.376;16.744;2022-09-06T04:44:36;7.8;70.6
67893;DHT22;54688;52.376;16.744;2022-09-06T04:47:38;7.9;71.1
67893;DHT22;54688;52.376;16.744;2022-09-06T04:50:40;7.9;71.4
67893;DHT22;54688;52.376;16.744;2022-09-06T04:53:42;7.9;71.3
67893;DHT22;54688;52.376;16.744;2022-09-06T04:56:44;7.9;71.3
67893;DHT22;54688;52.376;16.744;2022-09-06T04:59:46;8;70.9
67893;DHT22;54688;52.376;16.744;2022-09-06T05:02:48;8;71.5
67893;DHT22;54688;52.376;16.744;2022-09-06T05:05:51;8;71
67893;DHT22;54688;52.376;16.744;2022-09-06T05:08:54;8.1;70.7
67893;DHT22;54688;52.376;16.744;2022-09-06T05:11:56;8.1;71.4
67893;DHT22;54688;52.376;16.744;2022-09-06T05:14:58;8.1;70.6
67893;DHT22;54688;52.376;16.744;2022-09-06T05:18:01;8.1;70.8
67893;DHT22;54688;52.376;16.744;2022-09-06T05:21:04;8.2;70.7
67893;DHT22;54688;52.376;16.744;2022-09-06T05:24:07;8.2;70.7
67893;DHT22;54688;52.376;16.744;2022-09-06T05:27:09;8.2;70.9
67893;DHT22;54688;52.376;16.744;2022-09-06T05:30:12;8.3;70.5
67893;DHT22;54688;52.376;16.744;2022-09-06T05:33:18;8.3;70.2
67893;DHT22;54688;52.376;16.744;2022-09-06T05:36:20;8.3;70.2
67893;DHT22;54688;52.376;16.744;2022-09-06T05:39:23;8.4;70.5
67893;DHT22;54688;52.376;16.744;2022-09-06T05:42:24;8.5;70.8
67893;DHT22;54688;52.376;16.744;2022-09-06T05:45:26;8.5;70.4
67893;DHT22;54688;52.376;16.744;2022-09-06T05:48:28;8.6;70.9
67893;DHT22;54688;52.376;16.744;2022-09-06T05:51:30;8.7;70.6
67893;DHT22;54688;52.376;16.744;2022-09-06T05:54:32;8.7;69.9
67893;DHT22;54688;52.376;16.744;2022-09-06T05:57:34;8.7;69.6
67893;DHT22;54688;52.376;16.744;2022-09-06T06:00:36;8.8;69.7
67893;DHT22;54688;52.376;16.744;2022-09-06T06:03:38;8.9;69.5
67893;DHT22;54688;52.376;16.744;2022-09-06T06:06:41;8.9;69.3
67893;DHT22;54688;52.376;16.744;2022-09-06T06:09:42;9;69
67893;DHT22;54688;52.376;16.744;2022-09-06T06:12:44;9.1;68.8
67893;DHT22;54688;52.376;16.744;2022-09-06T06:15:46;9.1;68.9
67893;DHT22;54688;52.376;16.744;2022-09-06T06:18:48;9.2;68.5
67893;DHT22;54688;52.376;16.744;2022-09-06T06:21:50;9.2;67.8
67893;DHT22;54688;52.376;16.744;2022-09-06T06:24:53;9.3;68.1
67893;DHT22;54688;52.376;16.744;2022-09-06T06:27:55;9.3;67.6
67893;DHT22;54688;52.376;16.744;2022-09-06T06:30:57;9.5;67.5
67893;DHT22;54688;52.376;16.744;2022-09-06T06:33:58;9.6;67.2
67893;DHT22;54688;52.376;16.744;2022-09-06T06:37:00;9.6;66.8
67893;DHT22;54688;52.376;16.744;2022-09-06T06:40:04;9.7;66.8
67893;DHT22;54688;52.376;16.744;2022-09-06T06:43:07;9.8;66.5
67893;DHT22;54688;52.376;16.744;2022-09-06T06:46:09;9.9;66.3
67893;DHT22;54688;52.376;16.744;2022-09-06T06:49:12;9.9;66.2
67893;DHT22;54688;52.376;16.744;2022-09-06T06:52:14;10.1;65.7
67893;DHT22;54688;52.376;16.744;2022-09-06T06:55:16;10.1;65.6
67893;DHT22;54688;52.376;16.744;2022-09-06T06:58:18;10.2;65.2
67893;DHT22;54688;52.376;16.744;2022-09-06T07:01:21;10.3;65.1
67893;DHT22;54688;52.376;16.744;2022-09-06T07:04:23;10.4;64.3
67893;DHT22;54688;52.376;16.744;2022-09-06T07:07:26;10.5;64.1
67893;DHT22;54688;52.376;16.744;2022-09-06T07:10:28;10.5;63.8
67893;DHT22;54688;52.376;16.744;2022-09-06T07:13:30;10.6;63.5
67893;DHT22;54688;52.376;16.744;2022-09-06T07:16:33;10.7;63.3
67893;DHT22;54688;52.376;16.744;2022-09-06T07:19:35;10.8;62.9
67893;DHT22;54688;52.376;16.744;2022-09-06T07:22:36;10.9;62.8
67893;DHT22;54688;52.376;16.744;2022-09-06T07:25:39;11;62.6
67893;DHT22;54688;52.376;16.744;2022-09-06T07:28:41;11.1;62.5
67893;DHT22;54688;52.376;16.744;2022-09-06T07:31:44;11.1;62
67893;DHT22;54688;52.376;16.744;2022-09-06T07:34:45;11.2;61.5
67893;DHT22;54688;52.376;16.744;2022-09-06T07:37:51;11.3;61.7
67893;DHT22;54688;52.376;16.744;2022-09-06T07:40:54;11.4;61.7
67893;DHT22;54688;52.376;16.744;2022-09-06T07:43:57;11.5;61.7
67893;DHT22;54688;52.376;16.744;2022-09-06T07:46:59;11.6;60.9
67893;DHT22;54688;52.376;16.744;2022-09-06T07:50:01;11.8;60.5
67893;DHT22;54688;52.376;16.744;2022-09-06T07:53:06;11.9;60
67893;DHT22;54688;52.376;16.744;2022-09-06T07:56:10;12;59.4
67893;DHT22;54688;52.376;16.744;2022-09-06T07:59:13;12;59.7
67893;DHT22;54688;52.376;16.744;2022-09-06T08:02:15;12.2;59.3
67893;DHT22;54688;52.376;16.744;2022-09-06T08:05:17;12.3;58.8
67893;DHT22;54688;52.376;16.744;2022-09-06T08:08:20;12.4;57.7
67893;DHT22;54688;52.376;16.744;2022-09-06T08:14:20;12.7;57.4
67893;DHT22;54688;52.376;16.744;2022-09-06T08:17:22;12.9;56.8
67893;DHT22;54688;52.376;16.744;2022-09-06T08:20:25;13;55.3
67893;DHT22;54688;52.376;16.744;2022-09-06T08:23:26;13.1;55.4
67893;DHT22;54688;52.376;16.744;2022-09-06T08:26:29;13.2;55.2
67893;DHT22;54688;52.376;16.744;2022-09-06T08:29:32;13.3;55.6
67893;DHT22;54688;52.376;16.744;2022-09-06T08:32:33;13.5;55
67893;DHT22;54688;52.376;16.744;2022-09-06T08:35:35;13.6;53.8
67893;DHT22;54688;52.376;16.744;2022-09-06T08:38:37;13.7;54.5
67893;DHT22;54688;52.376;16.744;2022-09-06T08:41:43;13.9;53.7
67893;DHT22;54688;52.376;16.744;2022-09-06T08:44:49;14;53
67893;DHT22;54688;52.376;16.744;2022-09-06T08:47:53;14.2;52.8
67893;DHT22;54688;52.376;16.744;2022-09-06T08:51:00;14.3;52.5
67893;DHT22;54688;52.376;16.744;2022-09-06T08:54:17;14.4;52.3
67893;DHT22;54688;52.376;16.744;2022-09-06T08:57:30;14.5;51.4
67893;DHT22;54688;52.376;16.744;2022-09-06T09:00:39;14.7;50.3
67893;DHT22;54688;52.376;16.744;2022-09-06T09:03:42;14.9;49.9
67893;DHT22;54688;52.376;16.744;2022-09-06T09:06:45;15.1;49.9
67893;DHT22;54688;52.376;16.744;2022-09-06T09:12:55;15.4;47.3
67893;DHT22;54688;52.376;16.744;2022-09-06T09:15:58;15.5;46.9
67893;DHT22;54688;52.376;16.744;2022-09-06T09:19:00;15.7;46.4
67893;DHT22;54688;52.376;16.744;2022-09-06T09:22:05;15.9;46.2
67893;DHT22;54688;52.376;16.744;2022-09-06T09:25:08;15.9;45.7
67893;DHT22;54688;52.376;16.744;2022-09-06T09:28:17;16.1;45.9
67893;DHT22;54688;52.376;16.744;2022-09-06T09:31:28;16.2;44.9
67893;DHT22;54688;52.376;16.744;2022-09-06T09:34:35;16.3;45.1
67893;DHT22;54688;52.376;16.744;2022-09-06T09:40:39;16.6;43.5
67893;DHT22;54688;52.376;16.744;2022-09-06T09:43:53;16.7;43
67893;DHT22;54688;52.376;16.744;2022-09-06T09:46:57;16.8;42.8
67893;DHT22;54688;52.376;16.744;2022-09-06T09:49:59;17;42.3
67893;DHT22;54688;52.376;16.744;2022-09-06T09:53:05;17.1;42.8
67893;DHT22;54688;52.376;16.744;2022-09-06T09:56:10;17.2;42.1
67893;DHT22;54688;52.376;16.744;2022-09-06T10:02:18;17.4;40.8
67893;DHT22;54688;52.376;16.744;2022-09-06T10:05:25;17.4;40.9
67893;DHT22;54688;52.376;16.744;2022-09-06T10:08:27;17.5;40.5
67893;DHT22;54688;52.376;16.744;2022-09-06T10:11:37;17.6;40.3
67893;DHT22;54688;52.376;16.744;2022-09-06T10:14:42;17.7;40.2
67893;DHT22;54688;52.376;16.744;2022-09-06T10:17:47;17.9;40
67893;DHT22;54688;52.376;16.744;2022-09-06T10:20:52;17.9;40.1
67893;DHT22;54688;52.376;16.744;2022-09-06T10:24:00;17.9;40.1
67893;DHT22;54688;52.376;16.744;2022-09-06T10:27:11;17.9;39.4
67893;DHT22;54688;52.376;16.744;2022-09-06T10:30:25;18;38.6
67893;DHT22;54688;52.376;16.744;2022-09-06T10:33:33;18.2;38.2
67893;DHT22;54688;52.376;16.744;2022-09-06T10:36:43;18.3;37.8
67893;DHT22;54688;52.376;16.744;2022-09-06T10:39:56;18.4;37.5
67893;DHT22;54688;52.376;16.744;2022-09-06T10:43:06;18.5;37.8
67893;DHT22;54688;52.376;16.744;2022-09-06T10:46:15;18.7;37.5
67893;DHT22;54688;52.376;16.744;2022-09-06T10:49:19;18.8;36.7
67893;DHT22;54688;52.376;16.744;2022-09-06T10:52:23;18.9;36.4
67893;DHT22;54688;52.376;16.744;2022-09-06T10:55:28;19;36.7
67893;DHT22;54688;52.376;16.744;2022-09-06T10:58:32;19.1;36.4
67893;DHT22;54688;52.376;16.744;2022-09-06T11:01:39;19.3;35.2
67893;DHT22;54688;52.376;16.744;2022-09-06T11:04:45;19.4;35.6
67893;DHT22;54688;52.376;16.744;2022-09-06T11:07:51;19.5;35.2
67893;DHT22;54688;52.376;16.744;2022-09-06T11:10:56;19.6;35.3
67893;DHT22;54688;52.376;16.744;2022-09-06T11:14:00;19.6;35.1
67893;DHT22;54688;52.376;16.744;2022-09-06T11:17:09;19.7;34.9
67893;DHT22;54688;52.376;16.744;2022-09-06T11:20:16;19.8;35.2
67893;DHT22;54688;52.376;16.744;2022-09-06T11:23:26;19.9;34.9
67893;DHT22;54688;52.376;16.744;2022-09-06T11:26:42;20;34.9
67893;DHT22;54688;52.376;16.744;2022-09-06T11:29:47;20.2;33.8
67893;DHT22;54688;52.376;16.744;2022-09-06T11:32:50;20.4;33.8
67893;DHT22;54688;52.376;16.744;2022-09-06T11:36:15;20.5;33.9
67893;DHT22;54688;52.376;16.744;2022-09-06T11:39:23;20.6;33.5
67893;DHT22;54688;52.376;16.744;2022-09-06T11:44:52;20.7;33.3
67893;DHT22;54688;52.376;16.744;2022-09-06T11:48:31;20.9;32.5
67893;DHT22;54688;52.376;16.744;2022-09-06T11:51:49;21.2;31.7
67893;DHT22;54688;52.376;16.744;2022-09-06T11:54:52;21.3;31.2
67893;DHT22;54688;52.376;16.744;2022-09-06T11:57:55;21.5;30.8
67893;DHT22;54688;52.376;16.744;2022-09-06T12:01:32;21.7;30.2
67893;DHT22;54688;52.376;16.744;2022-09-06T12:05:06;21.8;31.3
67893;DHT22;54688;52.376;16.744;2022-09-06T12:08:22;22;30.3
67893;DHT22;54688;52.376;16.744;2022-09-06T12:11:32;22.2;29.2
67893;DHT22;54688;52.376;16.744;2022-09-06T12:14:38;22.4;29.5
67893;DHT22;54688;52.376;16.744;2022-09-06T12:17:45;22.6;28.9
67893;DHT22;54688;52.376;16.744;2022-09-06T12:21:02;22.7;29
67893;DHT22;54688;52.376;16.744;2022-09-06T12:24:06;22.8;28.5
67893;DHT22;54688;52.376;16.744;2022-09-06T12:27:10;22.8;28.8
67893;DHT22;54688;52.376;16.744;2022-09-06T12:30:28;22.8;28.7
67893;DHT22;54688;52.376;16.744;2022-09-06T12:33:34;22.8;29
67893;DHT22;54688;52.376;16.744;2022-09-06T12:36:45;22.8;28.8
67893;DHT22;54688;52.376;16.744;2022-09-06T12:39:55;22.8;29
67893;DHT22;54688;52.376;16.744;2022-09-06T12:42:58;22.8;29.6
67893;DHT22;54688;52.376;16.744;2022-09-06T12:46:01;22.8;29
67893;DHT22;54688;52.376;16.744;2022-09-06T12:49:07;22.8;29.4
67893;DHT22;54688;52.376;16.744;2022-09-06T12:52:12;22.9;29.6
67893;DHT22;54688;52.376;16.744;2022-09-06T12:55:18;22.9;29.2
67893;DHT22;54688;52.376;16.744;2022-09-06T12:58:26;22.9;29.2
67893;DHT22;54688;52.376;16.744;2022-09-06T13:01:30;22.9;28.8
67893;DHT22;54688;52.376;16.744;2022-09-06T13:04:36;22.9;29
67893;DHT22;54688;52.376;16.744;2022-09-06T13:07:42;22.9;28.9
67893;DHT22;54688;52.376;16.744;2022-09-06T13:10:47;22.9;28.4
67893;DHT22;54688;52.376;16.744;2022-09-06T13:13:50;22.9;29
67893;DHT22;54688;52.376;16.744;2022-09-06T13:16:55;22.9;28.7
67893;DHT22;54688;52.376;16.744;2022-09-06T13:19:57;22.9;28.3
67893;DHT22;54688;52.376;16.744;2022-09-06T13:23:07;22.8;28.1
67893;DHT22;54688;52.376;16.744;2022-09-06T13:26:10;22.7;28.6
67893;DHT22;54688;52.376;16.744;2022-09-06T13:29:20;22.7;29
67893;DHT22;54688;52.376;16.744;2022-09-06T13:32:24;22.7;28.7
67893;DHT22;54688;52.376;16.744;2022-09-06T13:35:29;22.6;29
67893;DHT22;54688;52.376;16.744;2022-09-06T13:38:33;22.6;29.1
67893;DHT22;54688;52.376;16.744;2022-09-06T13:41:39;22.5;29.4
67893;DHT22;54688;52.376;16.744;2022-09-06T13:44:41;22.5;29.3
67893;DHT22;54688;52.376;16.744;2022-09-06T13:47:43;22.5;30
67893;DHT22;54688;52.376;16.744;2022-09-06T13:50:46;22.5;29.6
67893;DHT22;54688;52.376;16.744;2022-09-06T13:53:48;22.6;29.9
67893;DHT22;54688;52.376;16.744;2022-09-06T13:56:51;22.7;29.4
67893;DHT22;54688;52.376;16.744;2022-09-06T13:59:53;22.7;29.7
67893;DHT22;54688;52.376;16.744;2022-09-06T14:02:55;22.7;29.3
67893;DHT22;54688;52.376;16.744;2022-09-06T14:05:57;22.8;29.3
67893;DHT22;54688;52.376;16.744;2022-09-06T14:09:00;22.9;29
67893;DHT22;54688;52.376;16.744;2022-09-06T14:12:03;22.9;29.2
67893;DHT22;54688;52.376;16.744;2022-09-06T14:15:06;22.9;28.9
67893;DHT22;54688;52.376;16.744;2022-09-06T14:18:10;23;29
67893;DHT22;54688;52.376;16.744;2022-09-06T14:21:12;23;29.1
67893;DHT22;54688;52.376;16.744;2022-09-06T14:24:15;23.1;28.2
67893;DHT22;54688;52.376;16.744;2022-09-06T14:27:17;23.2;28.7
67893;DHT22;54688;52.376;16.744;2022-09-06T14:30:20;23.2;28.4
67893;DHT22;54688;52.376;16.744;2022-09-06T14:33:22;23.2;28.3
67893;DHT22;54688;52.376;16.744;2022-09-06T14:36:26;23.3;29.1
67893;DHT22;54688;52.376;16.744;2022-09-06T14:39:29;23.3;28.4
67893;DHT22;54688;52.376;16.744;2022-09-06T14:42:32;23.3;28.6
67893;DHT22;54688;52.376;16.744;2022-09-06T14:48:34;23.2;28.5
67893;DHT22;54688;52.376;16.744;2022-09-06T14:51:38;23.2;28.3
67893;DHT22;54688;52.376;16.744;2022-09-06T14:54:40;23.2;28.2
67893;DHT22;54688;52.376;16.744;2022-09-06T14:57:42;23.3;28.6
67893;DHT22;54688;52.376;16.744;2022-09-06T15:00:44;23.3;27.9
67893;DHT22;54688;52.376;16.744;2022-09-06T15:03:47;23.3;27.9
67893;DHT22;54688;52.376;16.744;2022-09-06T15:06:51;23.4;27.9
67893;DHT22;54688;52.376;16.744;2022-09-06T15:09:53;23.4;28.1
67893;DHT22;54688;52.376;16.744;2022-09-06T15:12:55;23.4;27.9
67893;DHT22;54688;52.376;16.744;2022-09-06T15:15:58;23.4;27.6
67893;DHT22;54688;52.376;16.744;2022-09-06T15:19:04;23.4;27.8
67893;DHT22;54688;52.376;16.744;2022-09-06T15:22:07;23.3;28.1
67893;DHT22;54688;52.376;16.744;2022-09-06T15:25:10;23.3;28.1
67893;DHT22;54688;52.376;16.744;2022-09-06T15:28:12;23.1;28.3
67893;DHT22;54688;52.376;16.744;2022-09-06T15:31:14;23;28.4
67893;DHT22;54688;52.376;16.744;2022-09-06T15:34:16;22.9;28.6
67893;DHT22;54688;52.376;16.744;2022-09-06T15:37:19;22.8;28.4
67893;DHT22;54688;52.376;16.744;2022-09-06T15:40:22;22.7;28.8
67893;DHT22;54688;52.376;16.744;2022-09-06T15:43:24;22.6;29.1
67893;DHT22;54688;52.376;16.744;2022-09-06T15:46:39;22.4;29.6
67893;DHT22;54688;52.376;16.744;2022-09-06T15:49:46;22.3;29.3
67893;DHT22;54688;52.376;16.744;2022-09-06T15:52:48;22.2;29.5
67893;DHT22;54688;52.376;16.744;2022-09-06T15:55:56;22.1;29.7
67893;DHT22;54688;52.376;16.744;2022-09-06T15:58:59;22;29.5
67893;DHT22;54688;52.376;16.744;2022-09-06T16:02:01;22;30.1
67893;DHT22;54688;52.376;16.744;2022-09-06T16:05:05;21.9;30.1
67893;DHT22;54688;52.376;16.744;2022-09-06T16:08:07;21.9;30
67893;DHT22;54688;52.376;16.744;2022-09-06T16:11:09;21.8;30.5
67893;DHT22;54688;52.376;16.744;2022-09-06T16:14:13;21.7;30.8
67893;DHT22;54688;52.376;16.744;2022-09-06T16:17:16;21.6;30.3
67893;DHT22;54688;52.376;16.744;2022-09-06T16:20:20;21.6;30.4
67893;DHT22;54688;52.376;16.744;2022-09-06T16:23:22;21.5;30.8
67893;DHT22;54688;52.376;16.744;2022-09-06T16:26:26;21.4;30.9
67893;DHT22;54688;52.376;16.744;2022-09-06T16:29:28;21.3;30.5
67893;DHT22;54688;52.376;16.744;2022-09-06T16:32:30;21.2;31.8
67893;DHT22;54688;52.376;16.744;2022-09-06T16:35:37;21.2;31.7
67893;DHT22;54688;52.376;16.744;2022-09-06T16:38:40;21.1;32
67893;DHT22;54688;52.376;16.744;2022-09-06T16:41:43;21;32.1
67893;DHT22;54688;52.376;16.744;2022-09-06T16:44:46;20.9;32.5
67893;DHT22;54688;52.376;16.744;2022-09-06T16:47:49;20.8;32.3
67893;DHT22;54688;52.376;16.744;2022-09-06T16:50:50;20.7;32.8
67893;DHT22;54688;52.376;16.744;2022-09-06T16:53:53;20.6;33.1
67893;DHT22;54688;52.376;16.744;2022-09-06T16:56:56;20.6;33.2
67893;DHT22;54688;52.376;16.744;2022-09-06T16:59:59;20.5;33.7
67893;DHT22;54688;52.376;16.744;2022-09-06T17:03:02;20.4;33.9
67893;DHT22;54688;52.376;16.744;2022-09-06T17:06:05;20.3;34.1
67893;DHT22;54688;52.376;16.744;2022-09-06T17:09:08;20.2;34.5
67893;DHT22;54688;52.376;16.744;2022-09-06T17:12:11;20.1;34.7
67893;DHT22;54688;52.376;16.744;2022-09-06T17:15:13;20;35.6
67893;DHT22;54688;52.376;16.744;2022-09-06T17:18:16;19.9;35.1
67893;DHT22;54688;52.376;16.744;2022-09-06T17:21:20;19.8;35.3
67893;DHT22;54688;52.376;16.744;2022-09-06T17:24:22;19.7;35.5
67893;DHT22;54688;52.376;16.744;2022-09-06T17:27:25;19.6;35.7
67893;DHT22;54688;52.376;16.744;2022-09-06T17:30:26;19.5;35.9
67893;DHT22;54688;52.376;16.744;2022-09-06T17:33:29;19.4;36.1
67893;DHT22;54688;52.376;16.744;2022-09-06T17:36:32;19.3;36.6
67893;DHT22;54688;52.376;16.744;2022-09-06T17:39:36;19.2;37
67893;DHT22;54688;52.376;16.744;2022-09-06T17:42:38;19;37.1
67893;DHT22;54688;52.376;16.744;2022-09-06T17:45:41;18.9;37.2
67893;DHT22;54688;52.376;16.744;2022-09-06T17:48:43;18.8;37.4
67893;DHT22;54688;52.376;16.744;2022-09-06T17:51:45;18.7;37.5
67893;DHT22;54688;52.376;16.744;2022-09-06T17:54:47;18.6;37.7
67893;DHT22;54688;52.376;16.744;2022-09-06T17:57:49;18.5;37.9
67893;DHT22;54688;52.376;16.744;2022-09-06T18:00:51;18.5;38.3
67893;DHT22;54688;52.376;16.744;2022-09-06T18:03:52;18.3;38.2
67893;DHT22;54688;52.376;16.744;2022-09-06T18:06:55;18.2;38.7
67893;DHT22;54688;52.376;16.744;2022-09-06T18:09:56;18.1;38.8
67893;DHT22;54688;52.376;16.744;2022-09-06T18:12:58;18;39.3
67893;DHT22;54688;52.376;16.744;2022-09-06T18:16:01;17.9;39.5
67893;DHT22;54688;52.376;16.744;2022-09-06T18:19:06;17.8;39.7
67893;DHT22;54688;52.376;16.744;2022-09-06T18:22:10;17.8;40
67893;DHT22;54688;52.376;16.744;2022-09-06T18:25:12;17.7;40.9
67893;DHT22;54688;52.376;16.744;2022-09-06T18:28:14;17.7;41
67893;DHT22;54688;52.376;16.744;2022-09-06T18:31:17;17.7;40.5
67893;DHT22;54688;52.376;16.744;2022-09-06T18:34:21;17.6;40.5
67893;DHT22;54688;52.376;16.744;2022-09-06T18:37:23;17.6;40.6
67893;DHT22;54688;52.376;16.744;2022-09-06T18:40:26;17.6;40.7
67893;DHT22;54688;52.376;16.744;2022-09-06T18:43:28;17.6;40.9
67893;DHT22;54688;52.376;16.744;2022-09-06T18:46:32;17.5;40.9
67893;DHT22;54688;52.376;16.744;2022-09-06T18:49:36;17.5;41
67893;DHT22;54688;52.376;16.744;2022-09-06T18:52:39;17.4;41
67893;DHT22;54688;52.376;16.744;2022-09-06T18:55:41;17.3;41
67893;DHT22;54688;52.376;16.744;2022-09-06T18:58:43;17.3;41.2
67893;DHT22;54688;52.376;16.744;2022-09-06T19:04:46;17.1;41.6
67893;DHT22;54688;52.376;16.744;2022-09-06T19:07:48;17;41.7
67893;DHT22;54688;52.376;16.744;2022-09-06T19:10:56;16.9;42
67893;DHT22;54688;52.376;16.744;2022-09-06T19:13:59;16.7;42.3
67893;DHT22;54688;52.376;16.744;2022-09-06T19:17:02;16.6;42.7
67893;DHT22;54688;52.376;16.744;2022-09-06T19:20:06;16.4;42.8
67893;DHT22;54688;52.376;16.744;2022-09-06T19:23:10;16.3;43.1
67893;DHT22;54688;52.376;16.744;2022-09-06T19:26:13;16.2;43.4
67893;DHT22;54688;52.376;16.744;2022-09-06T19:29:18;16.1;43.7
67893;DHT22;54688;52.376;16.744;2022-09-06T19:32:21;16;43.9
67893;DHT22;54688;52.376;16.744;2022-09-06T19:35:24;15.9;44.1
67893;DHT22;54688;52.376;16.744;2022-09-06T19:38:27;15.8;44.6
67893;DHT22;54688;52.376;16.744;2022-09-06T19:41:30;15.7;44.7
67893;DHT22;54688;52.376;16.744;2022-09-06T19:44:33;15.6;45.1
67893;DHT22;54688;52.376;16.744;2022-09-06T19:47:35;15.5;45.2
67893;DHT22;54688;52.376;16.744;2022-09-06T19:50:37;15.5;45.5
67893;DHT22;54688;52.376;16.744;2022-09-06T19:53:39;15.3;45.7
67893;DHT22;54688;52.376;16.744;2022-09-06T19:56:44;15.3;45.8
67893;DHT22;54688;52.376;16.744;2022-09-06T19:59:47;15.2;46.1
67893;DHT22;54688;52.376;16.744;2022-09-06T20:02:48;15.1;46.3
67893;DHT22;54688;52.376;16.744;2022-09-06T20:05:54;15;46.5
67893;DHT22;54688;52.376;16.744;2022-09-06T20:08:57;14.9;46.6
67893;DHT22;54688;52.376;16.744;2022-09-06T20:12:00;14.8;46.7
67893;DHT22;54688;52.376;16.744;2022-09-06T20:15:03;14.8;47
67893;DHT22;54688;52.376;16.744;2022-09-06T20:18:06;14.7;47.1